createdAt,value
2023-05-09T00:02:07.904Z,98666.84
2023-05-09T00:04:35.364Z,98677.09
2023-05-09T00:07:02.137Z,98666.84
2023-05-09T00:09:28.772Z,98671.50
2023-05-09T00:11:55.554Z,98665.03
2023-05-09T00:14:22.140Z,98655.84
2023-05-09T00:16:49.205Z,98656.19
2023-05-09T00:19:15.959Z,98638.78
2023-05-09T00:21:42.743Z,98657.81
2023-05-09T00:24:09.290Z,98658.06
2023-05-09T00:26:35.995Z,98657.06
2023-05-09T00:29:02.650Z,98656.78
2023-05-09T00:31:29.435Z,98659.13
2023-05-09T00:33:56.080Z,98657.72
2023-05-09T00:36:23.349Z,98649.66
2023-05-09T00:38:50.064Z,98652.94
2023-05-09T00:41:16.785Z,98647.88
2023-05-09T00:43:43.384Z,98646.53
2023-05-09T00:46:10.179Z,98649.94
2023-05-09T00:48:36.852Z,98649.94
2023-05-09T00:51:04.864Z,98651.97
2023-05-09T00:53:31.653Z,98633.22
2023-05-09T00:56:00.286Z,98643.81
2023-05-09T00:58:27.511Z,98653.72
2023-05-09T01:00:54.243Z,98648.25
2023-05-09T01:03:21.170Z,98655.19
2023-05-09T01:06:26.568Z,98654.38
2023-05-09T01:09:01.248Z,98653.72
2023-05-09T01:12:05.412Z,98645.78
2023-05-09T01:14:50.589Z,98638.13
2023-05-09T01:17:46.828Z,98638.22
2023-05-09T01:20:24.358Z,98635.19
2023-05-09T01:23:01.995Z,98626.94
2023-05-09T01:25:38.034Z,98638.59
2023-05-09T01:28:14.303Z,98637.78
2023-05-09T01:30:45.813Z,98638.41
2023-05-09T01:33:18.093Z,98640.19
2023-05-09T01:35:52.147Z,98628.41
2023-05-09T01:38:23.079Z,98620.06
2023-05-09T01:40:54.436Z,98626.13
2023-05-09T01:43:23.595Z,98625.06
2023-05-09T01:45:52.460Z,98623.28
2023-05-09T01:48:21.706Z,98622.47
2023-05-09T01:50:49.089Z,98620.38
2023-05-09T01:53:17.766Z,98622.97
2023-05-09T01:55:45.925Z,98618.84
2023-05-09T01:58:13.409Z,98620.28
2023-05-09T02:00:41.114Z,98624.41
2023-05-09T02:03:08.974Z,98628.66
2023-05-09T02:05:37.278Z,98629.59
2023-05-09T02:08:04.157Z,98634.69
2023-05-09T02:10:34.256Z,98636.47
2023-05-09T02:13:01.268Z,98636.00
2023-05-09T02:15:29.523Z,98638.06
2023-05-09T02:17:56.695Z,98630.31
2023-05-09T02:20:23.381Z,98634.97
2023-05-09T02:22:50.644Z,98634.03
2023-05-09T02:25:18.596Z,98630.97
2023-05-09T02:27:46.649Z,98629.63
2023-05-09T02:30:23.320Z,98632.56
2023-05-09T02:32:53.736Z,98626.56
2023-05-09T02:35:23.026Z,98626.56
2023-05-09T02:37:49.912Z,98626.44
2023-05-09T02:40:17.779Z,98628.09
2023-05-09T02:42:44.594Z,98628.53
2023-05-09T02:45:11.505Z,98635.41
2023-05-09T02:47:38.998Z,98635.69
2023-05-09T02:50:06.456Z,98629.09
2023-05-09T02:52:35.504Z,98635.69
2023-05-09T02:55:03.054Z,98634.84
2023-05-09T02:57:31.147Z,98626.34
2023-05-09T02:59:57.787Z,98621.72
2023-05-09T03:02:24.811Z,98627.16
2023-05-09T03:04:51.820Z,98626.63
2023-05-09T03:07:18.845Z,98628.50
2023-05-09T03:09:45.575Z,98624.13
2023-05-09T03:12:12.903Z,98620.31
2023-05-09T03:14:39.602Z,98621.97
2023-05-09T03:17:06.309Z,98618.25
2023-05-09T03:19:35.588Z,98614.50
2023-05-09T03:22:02.479Z,98606.97
2023-05-09T03:24:32.377Z,98610.00
2023-05-09T03:26:59.053Z,98596.88
2023-05-09T03:29:25.969Z,98594.28
2023-05-09T03:31:54.045Z,98596.31
2023-05-09T03:34:20.707Z,98596.59
2023-05-09T03:36:47.910Z,98589.16
2023-05-09T03:39:15.354Z,98608.59
2023-05-09T03:41:45.269Z,98607.91
2023-05-09T03:44:12.665Z,98607.56
2023-05-09T03:46:39.311Z,98602.38
2023-05-09T03:49:06.637Z,98613.72
2023-05-09T03:51:34.476Z,98600.03
2023-05-09T03:54:05.024Z,98590.72
2023-05-09T03:56:32.444Z,98603.22
2023-05-09T03:58:59.670Z,98601.31
2023-05-09T04:01:27.619Z,98607.31
2023-05-09T04:03:57.726Z,98607.91
2023-05-09T04:06:25.812Z,98599.75
2023-05-09T04:08:52.599Z,98612.38
2023-05-09T04:11:19.264Z,98611.53
2023-05-09T04:13:47.643Z,98614.75
2023-05-09T04:16:25.163Z,98593.78
2023-05-09T04:18:51.924Z,98612.28
2023-05-09T04:21:18.548Z,98603.44
2023-05-09T04:23:48.542Z,98618.78
2023-05-09T04:26:17.989Z,98616.06
2023-05-09T04:28:47.811Z,98611.69
2023-05-09T04:31:16.258Z,98602.50
2023-05-09T04:33:46.849Z,98607.31
2023-05-09T04:36:13.553Z,98609.34
2023-05-09T04:38:40.682Z,98609.47
2023-05-09T04:41:11.810Z,98596.16
2023-05-09T04:43:38.463Z,98603.44
2023-05-09T04:46:07.796Z,98607.16
2023-05-09T04:48:35.959Z,98601.09
2023-05-09T04:51:02.724Z,98594.72
2023-05-09T04:53:29.627Z,98590.97
2023-05-09T04:55:57.184Z,98606.63
2023-05-09T04:58:25.643Z,98604.63
2023-05-09T05:00:53.292Z,98606.25
2023-05-09T05:03:20.113Z,98607.69
2023-05-09T05:05:47.130Z,98597.56
2023-05-09T05:08:14.057Z,98595.34
2023-05-09T05:10:42.142Z,98594.78
2023-05-09T05:13:11.896Z,98599.69
2023-05-09T05:15:43.310Z,98605.81
2023-05-09T05:18:10.728Z,98594.28
2023-05-09T05:20:41.607Z,98602.38
2023-05-09T05:23:09.064Z,98606.03
2023-05-09T05:25:35.742Z,98600.91
2023-05-09T05:28:02.554Z,98598.63
2023-05-09T05:30:29.410Z,98600.16
2023-05-09T05:32:56.299Z,98597.56
2023-05-09T05:35:24.658Z,98595.09
2023-05-09T05:37:52.763Z,98599.47
2023-05-09T05:40:19.910Z,98589.59
2023-05-09T05:42:48.607Z,98581.91
2023-05-09T05:45:16.589Z,98582.50
2023-05-09T05:47:48.039Z,98596.88
2023-05-09T05:50:15.114Z,98602.25
2023-05-09T05:52:42.443Z,98598.16
2023-05-09T05:55:13.111Z,98607.44
2023-05-09T05:57:40.616Z,98600.38
2023-05-09T06:00:12.313Z,98606.84
2023-05-09T06:02:47.944Z,98598.34
2023-05-09T06:05:22.602Z,98602.03
2023-05-09T06:07:50.466Z,98604.81
2023-05-09T06:10:17.252Z,98605.91
2023-05-09T06:12:45.540Z,98605.66
2023-05-09T06:15:12.551Z,98589.47
2023-05-09T06:17:43.147Z,98588.03
2023-05-09T06:20:10.086Z,98591.88
2023-05-09T06:22:36.740Z,98591.88
2023-05-09T06:25:03.516Z,98600.59
2023-05-09T06:27:30.429Z,98596.78
2023-05-09T06:29:57.148Z,98591.75
2023-05-09T06:32:25.066Z,98593.28
2023-05-09T06:34:52.688Z,98595.75
2023-05-09T06:37:19.369Z,98596.47
2023-05-09T06:39:46.005Z,98599.19
2023-05-09T06:42:12.821Z,98596.59
2023-05-09T06:44:39.807Z,98596.47
2023-05-09T06:47:06.532Z,98587.72
2023-05-09T06:49:33.314Z,98585.88
2023-05-09T06:51:59.908Z,98596.72
2023-05-09T06:54:26.580Z,98600.75
2023-05-09T06:56:53.578Z,98580.50
2023-05-09T06:59:20.408Z,98587.66
2023-05-09T07:01:47.051Z,98593.41
2023-05-09T07:04:13.745Z,98590.81
2023-05-09T07:06:40.430Z,98593.41
2023-05-09T07:09:07.151Z,98595.47
2023-05-09T07:11:37.644Z,98582.47
2023-05-09T07:14:04.477Z,98588.47
2023-05-09T07:16:32.065Z,98590.25
2023-05-09T07:18:59.321Z,98591.41
2023-05-09T07:21:26.028Z,98584.28
2023-05-09T07:23:52.743Z,98584.56
2023-05-09T07:26:19.454Z,98580.31
2023-05-09T07:28:46.153Z,98582.56
2023-05-09T07:31:12.767Z,98583.84
2023-05-09T07:33:39.666Z,98580.75
2023-05-09T07:36:06.412Z,98577.91
2023-05-09T07:38:33.136Z,98576.63
2023-05-09T07:40:59.715Z,98577.84
2023-05-09T07:43:27.253Z,98579.09
2023-05-09T07:45:54.092Z,98574.31
2023-05-09T07:48:20.835Z,98566.78
2023-05-09T07:50:47.560Z,98565.44
2023-05-09T07:53:14.321Z,98574.03
2023-05-09T07:55:41.118Z,98567.41
2023-05-09T07:58:07.909Z,98543.81
2023-05-09T08:00:34.532Z,98563.63
2023-05-09T08:03:01.873Z,98562.31
2023-05-09T08:05:28.878Z,98562.72
2023-05-09T08:07:55.571Z,98562.13
2023-05-09T08:10:23.268Z,98567.25
2023-05-09T08:12:50.062Z,98554.28
2023-05-09T08:15:17.124Z,98559.78
2023-05-09T08:17:44.396Z,98556.88
2023-05-09T08:20:12.008Z,98561.13
2023-05-09T08:22:39.790Z,98549.34
2023-05-09T08:25:08.183Z,98558.13
2023-05-09T08:27:35.001Z,98555.00
2023-05-09T08:30:01.684Z,98553.19
2023-05-09T08:32:28.467Z,98536.50
2023-05-09T08:34:55.174Z,98555.66
2023-05-09T08:37:21.952Z,98532.97
2023-05-09T08:39:48.631Z,98551.19
2023-05-09T08:42:18.812Z,98544.72
2023-05-09T08:44:45.689Z,98540.94
2023-05-09T08:47:13.401Z,98545.88
2023-05-09T08:49:41.015Z,98538.44
2023-05-09T08:52:08.282Z,98540.53
2023-05-09T08:54:35.941Z,98548.00
2023-05-09T08:57:03.178Z,98551.06
2023-05-09T08:59:30.969Z,98543.97
2023-05-09T09:01:58.418Z,98540.69
2023-05-09T09:04:25.122Z,98551.63
2023-05-09T09:06:53.870Z,98550.53
2023-05-09T09:09:21.427Z,98546.06
2023-05-09T09:11:48.441Z,98537.00
2023-05-09T09:14:25.596Z,98533.88
2023-05-09T09:16:54.607Z,98530.66
2023-05-09T09:19:22.731Z,98529.84
2023-05-09T09:21:54.002Z,98527.38
2023-05-09T09:24:23.068Z,98532.31
2023-05-09T09:26:51.478Z,98522.75
2023-05-09T09:29:18.965Z,98524.13
2023-05-09T09:31:46.688Z,98526.19
2023-05-09T09:34:20.341Z,98518.13
2023-05-09T09:36:48.460Z,98520.19
2023-05-09T09:39:15.933Z,98516.50
2023-05-09T09:41:44.646Z,98526.13
2023-05-09T09:44:16.734Z,98519.97
2023-05-09T09:46:45.035Z,98521.50
2023-05-09T09:49:13.432Z,98516.16
2023-05-09T09:51:41.060Z,98514.94
2023-05-09T09:54:12.736Z,98495.34
2023-05-09T09:56:41.697Z,98510.19
2023-05-09T09:59:18.840Z,98513.59
2023-05-09T10:02:04.941Z,98516.06
2023-05-09T10:04:39.073Z,98511.00
2023-05-09T10:07:08.419Z,98504.44
2023-05-09T10:09:37.983Z,98505.41
2023-05-09T10:12:06.579Z,98503.16
2023-05-09T10:14:35.638Z,98500.56
2023-05-09T10:17:05.067Z,98488.38
2023-05-09T10:19:33.186Z,98501.28
2023-05-09T10:22:05.998Z,98494.44
2023-05-09T10:24:43.622Z,98489.50
2023-05-09T10:27:11.778Z,98494.56
2023-05-09T10:29:44.521Z,98489.66
2023-05-09T10:32:40.420Z,98491.56
2023-05-09T10:35:10.776Z,98489.66
2023-05-09T10:37:37.800Z,98483.91
2023-05-09T10:40:05.288Z,98481.16
2023-05-09T10:42:32.238Z,98482.09
2023-05-09T10:44:58.920Z,98471.59
2023-05-09T10:47:28.010Z,98484.97
2023-05-09T10:49:55.331Z,98476.09
2023-05-09T10:52:25.046Z,98466.28
2023-05-09T10:55:02.131Z,98470.13
2023-05-09T10:57:30.622Z,98468.78
2023-05-09T10:59:58.840Z,98464.94
2023-05-09T11:02:29.499Z,98466.44
2023-05-09T11:05:16.737Z,98462.75
2023-05-09T11:07:43.800Z,98462.63
2023-05-09T11:10:16.675Z,98450.47
2023-05-09T11:12:58.047Z,98445.78
2023-05-09T11:15:27.417Z,98435.38
2023-05-09T11:18:12.854Z,98446.88
2023-05-09T11:20:43.965Z,98445.13
2023-05-09T11:23:11.841Z,98452.50
2023-05-09T11:25:42.218Z,98442.13
2023-05-09T11:28:08.858Z,98439.09
2023-05-09T11:30:40.159Z,98436.63
2023-05-09T11:33:21.110Z,98441.03
2023-05-09T11:35:48.274Z,98420.66
2023-05-09T11:38:21.324Z,98411.06
2023-05-09T11:40:48.634Z,98412.97
2023-05-09T11:43:15.821Z,98415.84
2023-05-09T11:45:42.873Z,98408.88
2023-05-09T11:48:10.416Z,98419.38
2023-05-09T11:50:37.370Z,98397.78
2023-05-09T11:53:04.003Z,98394.75
2023-05-09T11:55:32.557Z,98393.38
2023-05-09T11:57:59.470Z,98392.44
2023-05-09T12:00:26.601Z,98389.03
2023-05-09T12:02:54.055Z,98381.75
2023-05-09T12:05:22.943Z,98386.72
2023-05-09T12:07:49.806Z,98377.69
2023-05-09T12:10:20.166Z,98381.50
2023-05-09T12:12:50.969Z,98381.50
2023-05-09T12:15:19.338Z,98379.16
2023-05-09T12:17:48.171Z,98370.97
2023-05-09T12:20:16.536Z,98371.63
2023-05-09T12:22:44.129Z,98369.03
2023-05-09T12:25:12.083Z,98365.78
2023-05-09T12:27:40.481Z,98362.09
2023-05-09T12:30:10.255Z,98365.78
2023-05-09T12:32:39.499Z,98356.75
2023-05-09T12:35:10.930Z,98367.00
2023-05-09T12:37:38.848Z,98359.44
2023-05-09T12:40:15.424Z,98353.31
2023-05-09T12:42:46.049Z,98355.22
2023-05-09T12:45:13.455Z,98359.06
2023-05-09T12:47:41.940Z,98345.50
2023-05-09T12:50:11.787Z,98350.53
2023-05-09T12:52:54.169Z,98340.56
2023-05-09T12:55:27.956Z,98335.09
2023-05-09T12:58:02.695Z,98332.63
2023-05-09T13:00:41.365Z,98328.09
2023-05-09T13:03:31.247Z,98324.28
2023-05-09T13:06:00.036Z,98316.59
2023-05-09T13:08:27.956Z,98319.91
2023-05-09T13:11:04.024Z,98305.53
2023-05-09T13:13:41.909Z,98305.66
2023-05-09T13:16:10.380Z,98299.91
2023-05-09T13:18:38.365Z,98306.91
2023-05-09T13:21:05.042Z,98300.84
2023-05-09T13:23:31.739Z,98299.91
2023-05-09T13:25:58.348Z,98297.88
2023-05-09T13:28:25.177Z,98285.53
2023-05-09T13:30:51.846Z,98283.38
2023-05-09T13:33:25.945Z,98286.22
2023-05-09T13:35:53.768Z,98272.94
2023-05-09T13:38:20.453Z,98276.94
2023-05-09T13:40:47.095Z,98270.47
2023-05-09T13:43:13.666Z,98268.66
2023-05-09T13:45:40.551Z,98267.00
2023-05-09T13:48:07.197Z,98239.94
2023-05-09T13:50:34.326Z,98256.91
2023-05-09T13:53:01.047Z,98253.84
2023-05-09T13:55:27.823Z,98235.03
2023-05-09T13:57:54.958Z,98253.72
2023-05-09T14:00:22.283Z,98245.75
2023-05-09T14:02:49.003Z,98248.25
2023-05-09T14:05:17.041Z,98243.28
2023-05-09T14:07:44.997Z,98241.41
2023-05-09T14:10:12.608Z,98227.84
2023-05-09T14:12:40.599Z,98223.19
2023-05-09T14:15:08.285Z,98235.66
2023-05-09T14:17:35.132Z,98227.19
2023-05-09T14:20:02.196Z,98221.13
2023-05-09T14:22:28.762Z,98230.31
2023-05-09T14:24:57.275Z,98216.63
2023-05-09T14:27:25.129Z,98217.53
2023-05-09T14:29:51.945Z,98217.09
2023-05-09T14:32:18.568Z,98210.53
2023-05-09T14:34:45.993Z,98206.69
2023-05-09T14:37:15.466Z,98207.69
2023-05-09T14:39:43.542Z,98210.13
2023-05-09T14:42:11.733Z,98203.00
2023-05-09T14:44:39.195Z,98197.94
2023-05-09T14:47:06.141Z,98186.25
2023-05-09T14:49:33.098Z,98186.56
2023-05-09T14:52:00.173Z,98194.38
2023-05-09T14:54:27.064Z,98187.81
2023-05-09T14:56:53.720Z,98182.75
2023-05-09T14:59:23.537Z,98181.81
2023-05-09T15:01:52.632Z,98177.56
2023-05-09T15:04:19.437Z,98174.41
2023-05-09T15:06:46.289Z,98173.75
2023-05-09T15:09:14.705Z,98178.13
2023-05-09T15:11:48.193Z,98170.31
2023-05-09T15:14:16.558Z,98175.97
2023-05-09T15:16:43.617Z,98167.78
2023-05-09T15:19:10.461Z,98162.72
2023-05-09T15:21:37.088Z,98164.22
2023-05-09T15:24:04.922Z,98160.00
2023-05-09T15:26:32.040Z,98166.28
2023-05-09T15:28:58.774Z,98161.38
2023-05-09T15:31:25.963Z,98153.69
2023-05-09T15:33:52.915Z,98152.34
2023-05-09T15:36:19.606Z,98150.44
2023-05-09T15:38:49.377Z,98133.59
2023-05-09T15:41:17.248Z,98151.09
2023-05-09T15:43:44.020Z,98148.38
2023-05-09T15:46:11.143Z,98142.50
2023-05-09T15:48:37.764Z,98146.88
2023-05-09T15:51:04.776Z,98145.09
2023-05-09T15:53:31.647Z,98137.44
2023-05-09T15:55:58.300Z,98137.81
2023-05-09T15:58:25.169Z,98138.34
2023-05-09T16:00:51.956Z,98134.78
2023-05-09T16:03:19.411Z,98130.84
2023-05-09T16:05:46.320Z,98132.63
2023-05-09T16:08:13.129Z,98130.56
2023-05-09T16:10:40.788Z,98123.75
2023-05-09T16:13:07.800Z,98123.75
2023-05-09T16:15:35.149Z,98127.59
2023-05-09T16:18:01.820Z,98127.19
2023-05-09T16:20:28.515Z,98126.66
2023-05-09T16:22:55.183Z,98125.19
2023-05-09T16:25:21.974Z,98121.53
2023-05-09T16:27:48.612Z,98123.56
2023-05-09T16:30:16.137Z,98112.94
2023-05-09T16:32:43.349Z,98117.75
2023-05-09T16:35:10.292Z,98108.75
2023-05-09T16:37:37.485Z,98100.25
2023-05-09T16:40:04.841Z,98101.91
2023-05-09T16:42:31.682Z,98104.34
2023-05-09T16:44:58.337Z,98103.81
2023-05-09T16:47:25.061Z,98113.53
2023-05-09T16:49:51.993Z,98111.56
2023-05-09T16:52:19.217Z,98105.97
2023-05-09T16:54:46.151Z,98111.31
2023-05-09T16:57:13.287Z,98115.41
2023-05-09T16:59:40.296Z,98105.00
2023-05-09T17:02:07.182Z,98109.66
2023-05-09T17:04:36.757Z,98110.22
2023-05-09T17:07:04.264Z,98102.03
2023-05-09T17:09:30.856Z,98100.81
2023-05-09T17:11:57.546Z,98101.91
2023-05-09T17:14:24.572Z,98093.16
2023-05-09T17:16:51.702Z,98095.50
2023-05-09T17:19:20.527Z,98093.84
2023-05-09T17:21:47.328Z,98095.47
2023-05-09T17:24:13.981Z,98091.22
2023-05-09T17:26:40.719Z,98097.66
2023-05-09T17:29:07.406Z,98081.25
2023-05-09T17:31:34.178Z,98092.84
2023-05-09T17:34:01.419Z,98082.59
2023-05-09T17:36:28.169Z,98079.63
2023-05-09T17:38:54.751Z,98083.19
2023-05-09T17:41:21.982Z,98085.13
2023-05-09T17:43:48.700Z,98085.94
2023-05-09T17:46:15.525Z,98081.81
2023-05-09T17:48:42.537Z,98088.22
2023-05-09T17:51:09.195Z,98074.44
2023-05-09T17:53:35.830Z,98079.75
2023-05-09T17:56:02.962Z,98070.63
2023-05-09T17:58:30.070Z,98077.31
2023-05-09T18:00:58.618Z,98081.28
2023-05-09T18:03:32.367Z,98073.66
2023-05-09T18:06:00.345Z,98073.38
2023-05-09T18:08:27.534Z,98071.00
2023-05-09T18:10:57.214Z,98074.72
2023-05-09T18:13:24.292Z,98075.66
2023-05-09T18:15:51.379Z,98077.19
2023-05-09T18:18:18.234Z,98084.56
2023-05-09T18:20:47.102Z,98080.44
2023-05-09T18:23:14.965Z,98076.25
2023-05-09T18:25:42.019Z,98066.38
2023-05-09T18:28:08.959Z,98067.63
2023-05-09T18:30:36.226Z,98074.88
2023-05-09T18:33:03.188Z,98067.66
2023-05-09T18:35:30.216Z,98062.59
2023-05-09T18:37:57.073Z,98070.25
2023-05-09T18:40:23.889Z,98063.41
2023-05-09T18:42:50.435Z,98070.63
2023-05-09T18:45:17.094Z,98060.25
2023-05-09T18:47:43.699Z,98064.50
2023-05-09T18:50:11.113Z,98062.72
2023-05-09T18:52:37.689Z,98063.41
2023-05-09T18:55:05.869Z,98064.63
2023-05-09T18:57:33.854Z,98072.41
2023-05-09T19:00:00.700Z,98062.56
2023-05-09T19:02:27.575Z,98058.09
2023-05-09T19:04:54.353Z,98060.81
2023-05-09T19:07:21.051Z,98065.59
2023-05-09T19:09:47.754Z,98052.47
2023-05-09T19:12:16.324Z,98064.78
2023-05-09T19:14:43.335Z,98065.88
2023-05-09T19:17:10.839Z,98057.13
2023-05-09T19:19:37.658Z,98055.34
2023-05-09T19:22:04.863Z,98065.44
2023-05-09T19:24:32.969Z,98073.22
2023-05-09T19:26:59.612Z,98072.00
2023-05-09T19:29:26.355Z,98068.31
2023-05-09T19:31:53.049Z,98075.00
2023-05-09T19:34:19.807Z,98079.13
2023-05-09T19:36:46.449Z,98077.75
2023-05-09T19:39:13.185Z,98075.44
2023-05-09T19:41:40.644Z,98076.66
2023-05-09T19:44:07.398Z,98069.69
2023-05-09T19:46:35.259Z,98066.81
2023-05-09T19:49:02.101Z,98070.50
2023-05-09T19:51:29.648Z,98072.28
2023-05-09T19:53:56.474Z,98068.84
2023-05-09T19:56:23.181Z,98073.09
2023-05-09T19:58:50.376Z,98077.34
2023-05-09T20:01:19.059Z,98073.09
2023-05-09T20:03:47.001Z,98074.47
2023-05-09T20:06:13.815Z,98079.66
2023-05-09T20:08:40.754Z,98069.41
2023-05-09T20:11:07.849Z,98067.50
2023-05-09T20:13:34.745Z,98071.72
2023-05-09T20:16:03.241Z,98059.72
2023-05-09T20:18:33.217Z,98062.19
2023-05-09T20:21:03.875Z,98059.31
2023-05-09T20:23:31.131Z,98052.63
2023-05-09T20:25:57.918Z,98055.63
2023-05-09T20:28:24.703Z,98055.06
2023-05-09T20:30:51.398Z,98049.22
2023-05-09T20:33:19.066Z,98048.94
2023-05-09T20:35:45.828Z,98037.59
2023-05-09T20:38:12.642Z,98033.38
2023-05-09T20:40:40.361Z,98029.69
2023-05-09T20:43:07.137Z,98027.50
2023-05-09T20:45:33.971Z,98024.78
2023-05-09T20:48:01.738Z,98017.94
2023-05-09T20:50:28.748Z,98015.63
2023-05-09T20:52:55.629Z,98013.28
2023-05-09T20:55:22.450Z,98017.81
2023-05-09T20:57:49.178Z,98022.28
2023-05-09T21:00:16.550Z,98013.97
2023-05-09T21:02:43.473Z,98007.28
2023-05-09T21:05:10.400Z,98006.47
2023-05-09T21:07:37.092Z,98005.34
2023-05-09T21:10:04.029Z,98011.91
2023-05-09T21:12:34.004Z,97997.59
2023-05-09T21:15:03.115Z,98000.06
2023-05-09T21:17:29.726Z,98008.09
2023-05-09T21:19:56.622Z,98007.69
2023-05-09T21:22:23.812Z,98011.09
2023-05-09T21:24:51.006Z,98010.81
2023-05-09T21:27:17.779Z,98002.53
2023-05-09T21:29:44.589Z,98007.72
2023-05-09T21:32:11.198Z,98000.22
2023-05-09T21:34:37.903Z,98000.75
2023-05-09T21:37:04.485Z,97996.38
2023-05-09T21:39:32.536Z,97992.56
2023-05-09T21:42:00.113Z,97980.69
2023-05-09T21:44:26.797Z,97964.03
2023-05-09T21:46:53.487Z,97990.22
2023-05-09T21:49:21.652Z,97975.78
2023-05-09T21:51:48.330Z,97983.28
2023-05-09T21:54:15.256Z,97985.19
2023-05-09T21:56:42.677Z,97989.69
2023-05-09T21:59:09.438Z,97974.56
2023-05-09T22:01:36.865Z,97983.28
2023-05-09T22:04:03.822Z,97981.34
2023-05-09T22:06:31.305Z,97983.56
2023-05-09T22:08:58.021Z,97986.41
2023-05-09T22:11:24.887Z,97980.56
2023-05-09T22:13:52.033Z,97981.50
2023-05-09T22:16:18.702Z,97984.66
2023-05-09T22:18:45.413Z,97983.41
2023-05-09T22:21:12.676Z,97984.63
2023-05-09T22:23:39.445Z,97990.91
2023-05-09T22:26:06.486Z,97977.53
2023-05-09T22:28:33.157Z,97979.03
2023-05-09T22:30:59.758Z,97982.13
2023-05-09T22:33:26.414Z,97987.19
2023-05-09T22:35:53.036Z,97986.38
2023-05-09T22:38:19.688Z,97982.00
2023-05-09T22:40:46.351Z,97986.25
2023-05-09T22:43:13.051Z,97975.59
2023-05-09T22:45:39.700Z,97982.69
2023-05-09T22:48:06.694Z,97983.50
2023-05-09T22:50:33.366Z,97984.47
2023-05-09T22:53:00.344Z,97988.84
2023-05-09T22:55:27.259Z,97992.22
2023-05-09T22:57:53.982Z,97993.44
2023-05-09T23:00:20.686Z,97996.88
2023-05-09T23:02:47.671Z,97992.91
2023-05-09T23:05:14.322Z,97984.56
2023-05-09T23:07:41.034Z,97991.41
2023-05-09T23:10:08.077Z,97990.75
2023-05-09T23:12:34.792Z,97992.34
2023-05-09T23:15:01.469Z,97994.94
2023-05-09T23:17:28.184Z,97994.81
2023-05-09T23:19:54.782Z,97986.78
2023-05-09T23:22:21.637Z,97998.22
2023-05-09T23:24:48.448Z,97991.94
2023-05-09T23:27:15.197Z,97995.75
2023-05-09T23:29:41.833Z,97991.94
2023-05-09T23:32:08.577Z,97990.16
2023-05-09T23:34:36.684Z,97992.19
2023-05-09T23:37:04.224Z,97994.53
2023-05-09T23:39:31.527Z,97992.47
2023-05-09T23:41:58.289Z,97982.09
2023-05-09T23:44:25.597Z,97988.63
2023-05-09T23:46:52.415Z,97982.66
2023-05-09T23:49:19.134Z,97981.84
2023-05-09T23:51:45.777Z,97979.25
2023-05-09T23:54:12.476Z,97979.34
2023-05-09T23:56:39.148Z,97966.81
2023-05-09T23:59:05.785Z,97975.97
